Time;durP1;ratioP1;P1;durP2;ratioP2;P2;SDS_P1;SDS_P2;PMS_P1;PMS_P2;Temp;Humidity;BMP_temperature;BMP_pressure;BME280_temperature;BME280_humidity;BME280_pressure;Samples;Min_cycle;Max_cycle;Signal;HPM_P1;HPM_P2
2024/01/17 00:02:15;;;;;;;32.67;19.42;;;8.10;99.90;;;;;;5057090;28;20033;-91
2024/01/17 00:04:50;;;;;;;35.63;19.45;;;8.20;99.90;;;;;;5067077;28;20016;-91
2024/01/17 00:07:16;;;;;;;36.42;20.30;;;8.20;99.90;;;;;;5065236;28;20489;-89
2024/01/17 00:09:43;;;;;;;29.58;18.65;;;8.20;99.90;;;;;;5072881;28;20024;-90
2024/01/17 00:12:10;;;;;;;30.42;18.73;;;8.10;99.90;;;;;;5073368;28;20046;-88
2024/01/17 00:14:36;;;;;;;33.13;18.65;;;8.00;99.90;;;;;;5076246;28;20063;-88
2024/01/17 00:17:03;;;;;;;28.73;18.75;;;8.00;99.90;;;;;;5076452;28;20020;-88
2024/01/17 00:19:31;;;;;;;33.35;17.95;;;8.00;99.90;;;;;;5076792;28;20031;-89
2024/01/17 00:21:57;;;;;;;30.27;18.38;;;7.90;99.90;;;;;;5076690;28;20059;-90
2024/01/17 00:24:24;;;;;;;32.00;18.30;;;7.90;99.90;;;;;;5079685;28;20024;-91
2024/01/17 00:26:51;;;;;;;28.52;16.73;;;7.90;99.90;;;;;;5095531;28;20062;-91
2024/01/17 00:29:17;;;;;;;27.92;17.75;;;8.00;99.90;;;;;;5081269;28;20032;-90
2024/01/17 00:31:45;;;;;;;27.33;16.23;;;8.00;99.90;;;;;;5094624;28;20035;-90
2024/01/17 00:34:11;;;;;;;32.03;18.15;;;8.00;99.90;;;;;;5077292;28;20028;-92
2024/01/17 00:36:38;;;;;;;32.35;18.20;;;7.90;99.90;;;;;;5096697;28;20036;-91
2024/01/17 00:39:04;;;;;;;31.27;17.10;;;7.90;99.90;;;;;;5098518;28;20025;-91
2024/01/17 00:41:32;;;;;;;27.80;17.02;;;7.90;99.90;;;;;;5080839;28;20039;-91
2024/01/17 00:43:59;;;;;;;28.42;16.92;;;7.90;99.90;;;;;;5061280;28;20066;-91
2024/01/17 00:46:25;;;;;;;28.52;17.65;;;7.90;99.90;;;;;;5075230;28;20024;-90
2024/01/17 00:48:52;;;;;;;30.48;16.75;;;7.90;99.90;;;;;;5077414;28;20462;-90
2024/01/17 00:51:23;;;;;;;29.65;16.20;;;7.90;99.90;;;;;;5079149;28;20028;-90
2024/01/17 00:53:49;;;;;;;25.63;16.15;;;8.10;99.90;;;;;;5076902;28;20512;-90
2024/01/17 00:56:16;;;;;;;26.10;16.10;;;8.10;99.90;;;;;;5056486;28;20063;-89
2024/01/17 00:58:42;;;;;;;25.52;16.40;;;8.10;99.90;;;;;;5073863;28;20048;-90
2024/01/17 01:01:10;;;;;;;27.52;15.93;;;8.10;99.90;;;;;;5074105;28;20024;-89
2024/01/17 01:03:36;;;;;;;24.55;15.38;;;8.00;99.90;;;;;;5077942;28;20359;-92
2024/01/17 01:06:04;;;;;;;27.08;15.38;;;8.00;99.90;;;;;;5061675;28;20056;-90
2024/01/17 01:08:31;;;;;;;29.38;14.77;;;8.00;99.90;;;;;;5078297;28;20036;-90
2024/01/17 01:10:57;;;;;;;27.30;15.05;;;8.00;99.90;;;;;;5080687;28;20032;-91
2024/01/17 01:13:24;;;;;;;26.50;14.50;;;7.90;99.90;;;;;;5097506;28;20534;-91
2024/01/17 01:15:50;;;;;;;26.15;15.38;;;8.00;99.90;;;;;;5080533;28;20081;-90
2024/01/17 07:33:40;;;;;;;7.43;4.13;;;12.90;99.90;;;;;;5477981;23;19946;-82
2024/01/17 07:36:10;;;;;;;7.78;4.18;;;13.10;99.90;;;;;;4882991;29;20037;-82
2024/01/17 07:38:37;;;;;;;12.57;5.40;;;13.20;99.90;;;;;;4882821;29;20028;-82
2024/01/17 07:41:05;;;;;;;10.38;5.78;;;13.40;99.90;;;;;;4882609;29;20029;-83
2024/01/17 07:43:33;;;;;;;12.30;6.65;;;13.60;99.90;;;;;;4879280;29;20495;-83
2024/01/17 07:46:01;;;;;;;10.52;7.30;;;13.80;99.90;;;;;;4879625;29;20029;-83
2024/01/17 07:48:27;;;;;;;10.07;8.52;;;14.00;99.90;;;;;;4895265;29;20025;-83
2024/01/17 07:50:55;;;;;;;10.15;8.70;;;14.00;99.90;;;;;;4894948;29;20033;-83
2024/01/17 07:53:22;;;;;;;11.40;9.52;;;13.90;99.90;;;;;;4897666;29;20033;-82
2024/01/17 07:55:49;;;;;;;16.13;9.98;;;14.00;99.90;;;;;;4898042;29;20045;-83
2024/01/17 07:58:16;;;;;;;14.25;10.20;;;14.00;99.90;;;;;;4897968;29;20028;-82
2024/01/17 08:00:43;;;;;;;10.85;9.73;;;14.20;99.90;;;;;;4882110;29;20040;-81
2024/01/17 08:03:13;;;;;;;11.85;10.10;;;14.30;99.90;;;;;;4894153;29;20028;-82
2024/01/17 08:05:44;;;;;;;14.57;10.63;;;14.40;99.90;;;;;;4863679;29;20033;-82
2024/01/17 08:08:11;;;;;;;18.80;10.48;;;14.40;99.90;;;;;;4879002;29;20032;-83
2024/01/17 08:10:39;;;;;;;11.80;10.52;;;14.60;99.90;;;;;;4894194;29;20112;-83
2024/01/17 08:13:05;;;;;;;10.38;9.32;;;14.70;99.90;;;;;;4896855;29;20077;-82
2024/01/17 08:15:36;;;;;;;11.43;10.43;;;14.80;99.90;;;;;;4897349;29;20557;-82
2024/01/17 08:18:08;;;;;;;14.43;11.30;;;15.00;99.90;;;;;;4881777;29;20028;-84
2024/01/17 08:20:36;;;;;;;13.02;12.07;;;15.10;99.90;;;;;;4898548;29;20490;-82
2024/01/17 08:23:05;;;;;;;14.38;12.68;;;15.30;99.90;;;;;;4879096;29;20028;-82
2024/01/17 08:25:32;;;;;;;13.48;12.48;;;15.30;99.90;;;;;;4878395;29;20033;-82
2024/01/17 08:27:59;;;;;;;14.63;13.23;;;15.30;99.90;;;;;;4893967;29;20040;-83
2024/01/17 08:30:29;;;;;;;14.90;13.38;;;15.40;99.90;;;;;;4867913;29;20044;-83
2024/01/17 08:32:56;;;;;;;14.68;13.43;;;15.30;99.90;;;;;;4878204;29;20049;-83
2024/01/17 08:35:25;;;;;;;15.02;13.48;;;15.20;99.90;;;;;;4878521;29;20051;-82
2024/01/17 08:37:52;;;;;;;15.52;14.13;;;15.30;99.90;;;;;;4878149;29;20037;-82
2024/01/17 08:40:21;;;;;;;15.77;14.20;;;15.50;99.90;;;;;;4878632;29;20100;-86
2024/01/17 08:42:48;;;;;;;15.23;14.07;;;15.70;99.90;;;;;;4879644;29;20080;-86
2024/01/17 08:45:18;;;;;;;15.25;13.93;;;15.80;99.90;;;;;;4877722;29;20041;-82
2024/01/17 08:47:44;;;;;;;16.52;14.73;;;16.00;99.90;;;;;;4893712;29;20029;-82
2024/01/17 08:50:14;;;;;;;15.70;14.40;;;16.10;99.90;;;;;;4878150;29;20064;-82
2024/01/17 08:52:41;;;;;;;15.38;14.32;;;16.10;99.90;;;;;;4893527;29;20029;-81
2024/01/17 08:55:08;;;;;;;15.60;14.18;;;15.90;99.90;;;;;;4897186;29;20123;-82
2024/01/17 08:57:39;;;;;;;15.50;14.27;;;15.90;99.90;;;;;;4897795;29;20124;-82
2024/01/17 09:00:08;;;;;;;16.33;14.82;;;15.90;99.90;;;;;;4881368;29;20508;-80
2024/01/17 09:02:37;;;;;;;16.85;15.10;;;16.00;99.90;;;;;;4881153;29;20493;-81
2024/01/17 09:05:04;;;;;;;17.80;15.95;;;16.20;99.90;;;;;;4877656;29;20033;-82
2024/01/17 09:07:36;;;;;;;19.05;15.85;;;16.20;99.90;;;;;;4877942;29;20041;-81
2024/01/17 09:10:03;;;;;;;26.42;16.77;;;16.40;99.90;;;;;;4862291;29;20033;-82
2024/01/17 09:12:33;;;;;;;24.60;16.75;;;16.40;99.90;;;;;;4862303;29;20033;-81
2024/01/17 09:15:00;;;;;;;21.67;18.15;;;16.70;99.90;;;;;;4880775;29;20047;-82
2024/01/17 09:17:27;;;;;;;20.05;17.95;;;16.80;99.90;;;;;;4865545;29;20390;-81
2024/01/17 09:19:54;;;;;;;24.58;19.88;;;16.80;99.90;;;;;;4897754;29;20550;-81
2024/01/17 09:22:20;;;;;;;29.40;19.52;;;17.00;99.90;;;;;;4896884;29;20394;-81
2024/01/17 09:24:48;;;;;;;28.00;19.10;;;17.00;99.90;;;;;;4881417;29;20093;-81
2024/01/17 09:27:14;;;;;;;22.65;18.83;;;17.00;99.90;;;;;;4882756;29;20471;-81
2024/01/17 09:29:41;;;;;;;24.25;19.30;;;17.10;99.90;;;;;;4882711;29;20066;-81
2024/01/17 09:32:08;;;;;;;20.70;18.85;;;17.00;99.90;;;;;;4881425;29;20482;-82
2024/01/17 09:34:38;;;;;;;20.33;18.23;;;17.00;99.90;;;;;;4899567;29;20075;-81
2024/01/17 09:37:05;;;;;;;20.90;18.70;;;17.20;99.90;;;;;;4899592;29;20128;-81
2024/01/17 09:39:35;;;;;;;24.40;18.98;;;17.20;99.90;;;;;;4899935;29;20494;-81
2024/01/17 09:42:07;;;;;;;20.85;18.90;;;17.30;99.90;;;;;;4899910;29;20124;-82
2024/01/17 09:44:37;;;;;;;18.98;17.20;;;17.50;99.90;;;;;;4881126;29;20029;-81
2024/01/17 09:47:06;;;;;;;19.13;17.20;;;17.50;99.90;;;;;;4882381;29;20029;-82
2024/01/17 09:49:33;;;;;;;19.20;17.40;;;17.60;99.90;;;;;;4881175;29;20081;-81
2024/01/17 09:52:05;;;;;;;19.15;17.38;;;17.90;99.90;;;;;;4882310;29;20571;-81
2024/01/17 09:54:41;;;;;;;21.00;17.10;;;18.10;99.90;;;;;;4884062;29;20045;-81
2024/01/17 09:57:16;;;;;;;20.95;17.08;;;18.30;99.90;;;;;;4884091;29;20249;-81
2024/01/17 09:59:56;;;;;;;18.13;16.52;;;18.40;99.90;;;;;;4899650;29;20037;-81
2024/01/17 10:02:24;;;;;;;18.60;16.95;;;18.30;99.90;;;;;;4884056;29;20036;-81
2024/01/17 10:04:51;;;;;;;20.17;16.90;;;18.20;99.90;;;;;;4896130;29;20395;-81
2024/01/17 10:07:18;;;;;;;18.55;17.05;;;18.30;99.90;;;;;;4880892;29;20067;-81
2024/01/17 10:09:48;;;;;;;19.35;17.50;;;18.40;99.90;;;;;;4896289;29;20033;-81
2024/01/17 10:12:18;;;;;;;20.48;18.73;;;18.40;99.90;;;;;;4880627;29;20025;-81
2024/01/17 10:14:45;;;;;;;20.92;19.23;;;18.20;99.90;;;;;;4883737;29;20045;-81
2024/01/17 10:17:12;;;;;;;22.15;20.23;;;18.20;99.90;;;;;;4899327;29;20466;-81
2024/01/17 10:19:40;;;;;;;21.52;19.80;;;18.20;99.90;;;;;;4899144;29;20048;-81
2024/01/17 10:22:10;;;;;;;21.13;19.63;;;18.20;99.90;;;;;;4883748;29;20036;-81
2024/01/17 10:24:41;;;;;;;22.60;20.98;;;18.20;99.90;;;;;;4887369;29;20029;-81
2024/01/17 10:27:08;;;;;;;23.67;21.85;;;18.20;99.90;;;;;;4880641;29;20025;-81
2024/01/17 10:29:41;;;;;;;23.65;22.20;;;18.10;99.90;;;;;;4875725;29;20037;-80
2024/01/17 10:32:11;;;;;;;26.10;24.13;;;18.30;99.90;;;;;;4880321;29;20502;-82
2024/01/17 10:34:41;;;;;;;26.15;23.98;;;18.30;99.90;;;;;;4904413;29;20518;-81
2024/01/17 10:37:11;;;;;;;26.80;24.73;;;18.40;99.90;;;;;;4900239;29;20509;-81
2024/01/17 10:39:38;;;;;;;26.60;24.55;;;18.40;99.90;;;;;;4900813;29;20088;-80
2024/01/17 10:42:05;;;;;;;26.02;24.20;;;18.20;99.90;;;;;;4900120;29;20021;-82
2024/01/17 10:44:32;;;;;;;26.80;24.90;;;18.30;99.90;;;;;;4883681;29;20033;-82
2024/01/17 10:47:00;;;;;;;27.77;25.67;;;18.20;99.90;;;;;;4846200;29;20033;-80
2024/01/17 10:49:30;;;;;;;28.55;26.55;;;18.20;99.90;;;;;;4861639;29;20086;-80
2024/01/17 10:52:08;;;;;;;28.50;26.25;;;18.20;99.90;;;;;;4862652;29;20471;-80
2024/01/17 10:54:50;;;;;;;28.58;26.48;;;18.20;99.90;;;;;;4886558;29;20406;-80
2024/01/17 10:57:20;;;;;;;29.13;26.92;;;18.30;99.90;;;;;;4899779;29;20482;-80
2024/01/17 10:59:50;;;;;;;28.23;26.33;;;18.30;99.90;;;;;;4898537;29;20044;-80
2024/01/17 11:02:23;;;;;;;28.67;26.77;;;18.50;99.90;;;;;;4914266;29;20036;-80
2024/01/17 11:05:05;;;;;;;29.30;27.10;;;18.40;99.90;;;;;;4899681;29;20036;-80
2024/01/17 11:07:33;;;;;;;28.92;26.60;;;18.50;99.90;;;;;;4914210;29;20398;-80
2024/01/17 11:10:03;;;;;;;28.98;26.95;;;18.50;99.90;;;;;;4914150;29;20025;-80
2024/01/17 11:12:35;;;;;;;28.52;26.65;;;18.50;99.90;;;;;;4898289;29;20040;-80
2024/01/17 11:15:07;;;;;;;28.50;26.30;;;18.60;99.90;;;;;;4882566;29;20491;-80
2024/01/17 11:17:35;;;;;;;28.10;26.25;;;18.40;99.90;;;;;;4879663;29;20029;-79
2024/01/17 11:20:08;;;;;;;29.25;26.98;;;18.50;99.90;;;;;;4880804;29;20025;-81
2024/01/17 11:22:37;;;;;;;29.17;27.17;;;18.70;99.90;;;;;;4880704;29;20025;-80
2024/01/17 11:25:14;;;;;;;29.58;27.40;;;18.70;99.90;;;;;;4879089;29;20039;-81
2024/01/17 11:27:49;;;;;;;30.00;27.88;;;18.70;99.90;;;;;;4898228;29;20058;-80
2024/01/17 11:30:33;;;;;;;30.13;27.90;;;18.70;99.90;;;;;;4913404;29;20038;-80
2024/01/17 11:33:10;;;;;;;29.30;27.30;;;18.70;99.90;;;;;;4886500;29;20180;-80
2024/01/17 11:35:42;;;;;;;30.40;27.98;;;18.70;99.90;;;;;;4845300;29;20173;-80
2024/01/17 11:38:13;;;;;;;29.27;27.23;;;18.60;99.90;;;;;;4845215;29;20116;-80
2024/01/17 11:40:42;;;;;;;29.27;27.27;;;18.50;99.90;;;;;;4861754;29;20041;-81
2024/01/17 11:43:09;;;;;;;28.75;26.90;;;18.50;99.90;;;;;;4861030;29;20029;-80
2024/01/17 11:45:38;;;;;;;29.35;27.35;;;18.50;99.90;;;;;;4898835;29;20032;-81
2024/01/17 11:48:18;;;;;;;30.73;28.70;;;18.60;99.90;;;;;;4882198;29;20033;-80
2024/01/17 11:51:01;;;;;;;31.00;28.23;;;18.70;99.90;;;;;;4882269;29;20040;-80
2024/01/17 11:53:30;;;;;;;29.60;27.50;;;18.70;99.90;;;;;;4898624;29;20036;-81
2024/01/17 11:55:58;;;;;;;30.85;28.10;;;18.50;99.90;;;;;;4898673;29;20032;-80
2024/01/17 11:58:42;;;;;;;29.35;27.25;;;18.50;99.90;;;;;;4881869;29;20035;-80
2024/01/17 12:01:12;;;;;;;30.05;27.88;;;18.30;99.90;;;;;;4881947;29;20033;-80
2024/01/17 12:03:42;;;;;;;30.10;27.75;;;18.30;99.90;;;;;;4898480;29;20023;-82
2024/01/17 12:06:11;;;;;;;30.60;28.20;;;18.30;99.90;;;;;;4866347;29;20553;-81
2024/01/17 12:08:39;;;;;;;30.05;27.83;;;18.30;99.90;;;;;;4881785;29;20438;-81
2024/01/17 12:11:09;;;;;;;31.25;28.38;;;18.20;99.90;;;;;;4897012;29;20439;-82
2024/01/17 12:13:36;;;;;;;29.38;27.10;;;18.20;99.90;;;;;;4881463;29;20024;-81
2024/01/17 12:16:05;;;;;;;29.75;27.55;;;18.20;99.90;;;;;;4897073;29;20044;-81
2024/01/17 12:18:33;;;;;;;31.20;28.60;;;18.20;99.90;;;;;;4881525;29;20033;-82
2024/01/17 12:21:03;;;;;;;29.85;27.73;;;18.20;99.90;;;;;;4881472;29;20028;-82
2024/01/17 12:23:35;;;;;;;30.63;28.08;;;18.20;99.90;;;;;;4862661;29;20044;-81
2024/01/17 12:26:03;;;;;;;31.33;28.52;;;18.10;99.90;;;;;;4898241;29;20063;-82
2024/01/17 12:28:30;;;;;;;30.45;28.15;;;18.10;99.90;;;;;;4896957;29;20024;-81
2024/01/17 12:31:07;;;;;;;30.20;27.88;;;18.10;99.90;;;;;;4881373;29;20116;-81
2024/01/17 12:33:36;;;;;;;30.60;28.35;;;18.00;99.90;;;;;;4894937;29;20053;-81
2024/01/17 12:36:05;;;;;;;32.92;30.17;;;18.00;99.90;;;;;;4879385;29;20033;-80
2024/01/17 12:38:34;;;;;;;32.30;29.67;;;18.00;99.90;;;;;;4878252;29;20153;-84
2024/01/17 12:41:03;;;;;;;34.38;31.02;;;18.00;99.90;;;;;;4878124;29;20036;-82
2024/01/17 12:43:39;;;;;;;32.13;29.73;;;18.00;99.90;;;;;;4895840;29;20036;-84
2024/01/17 12:46:09;;;;;;;33.58;30.55;;;17.90;99.90;;;;;;4866288;29;20032;-83
2024/01/17 12:48:36;;;;;;;35.08;32.25;;;17.80;99.90;;;;;;4881583;29;20035;-85
2024/01/17 12:51:08;;;;;;;33.60;30.23;;;17.80;99.90;;;;;;4881245;29;20056;-82
2024/01/17 12:53:35;;;;;;;31.90;29.08;;;17.90;99.90;;;;;;4862792;29;20766;-82
2024/01/17 12:56:01;;;;;;;29.92;27.50;;;17.80;99.90;;;;;;4861433;29;20431;-82
2024/01/17 12:58:31;;;;;;;29.55;27.20;;;17.80;99.90;;;;;;4861775;29;20081;-80
2024/01/17 13:01:00;;;;;;;27.85;25.60;;;17.90;99.90;;;;;;4877564;29;20085;-79
2024/01/17 13:03:27;;;;;;;28.48;25.98;;;17.80;99.90;;;;;;4878840;29;20056;-82
2024/01/17 13:06:01;;;;;;;28.80;26.17;;;17.90;99.90;;;;;;4880870;29;20084;-81
2024/01/17 13:08:28;;;;;;;28.02;25.55;;;17.90;99.90;;;;;;4880595;29;20036;-80
2024/01/17 13:10:55;;;;;;;28.40;25.85;;;17.80;99.90;;;;;;4897377;29;20157;-79
2024/01/17 13:13:24;;;;;;;28.17;26.20;;;17.90;99.90;;;;;;4896245;29;20040;-80
2024/01/17 13:15:52;;;;;;;28.88;26.20;;;18.00;99.90;;;;;;4877364;29;20068;-79
2024/01/17 13:18:23;;;;;;;27.67;25.55;;;18.00;99.90;;;;;;4878434;29;20507;-79
2024/01/17 13:20:51;;;;;;;28.83;26.15;;;18.00;99.90;;;;;;4878707;29;20116;-81
2024/01/17 13:23:17;;;;;;;27.70;24.77;;;17.90;99.90;;;;;;4877243;29;20037;-81
2024/01/17 13:25:44;;;;;;;26.33;24.25;;;17.80;99.90;;;;;;4880321;29;20053;-81
2024/01/17 13:28:13;;;;;;;25.48;23.42;;;17.80;99.90;;;;;;4865009;29;20553;-82
2024/01/17 13:30:40;;;;;;;25.73;23.45;;;17.90;99.90;;;;;;4897158;29;20112;-80
2024/01/17 13:33:11;;;;;;;24.35;22.23;;;17.70;99.90;;;;;;4896966;29;20048;-81
2024/01/17 13:35:40;;;;;;;24.73;22.48;;;17.60;99.90;;;;;;4861337;29;20136;-82
2024/01/17 13:38:07;;;;;;;22.40;20.23;;;17.50;99.90;;;;;;4846174;29;20029;-80
2024/01/17 13:40:34;;;;;;;20.85;18.63;;;17.50;99.90;;;;;;4861697;29;20033;-81
2024/01/17 13:43:03;;;;;;;20.48;18.70;;;17.40;99.90;;;;;;4877129;29;20025;-80
2024/01/17 13:45:31;;;;;;;27.80;18.08;;;17.20;99.90;;;;;;4895047;29;20037;-80
2024/01/17 13:47:58;;;;;;;19.05;17.25;;;17.20;99.90;;;;;;4897147;29;20029;-83
2024/01/17 13:50:25;;;;;;;17.25;15.85;;;17.10;99.90;;;;;;4865818;29;20123;-85
2024/01/17 13:52:59;;;;;;;20.45;16.55;;;17.00;99.90;;;;;;4865339;29;20029;-83
2024/01/17 13:55:26;;;;;;;18.92;15.88;;;16.90;99.90;;;;;;4862334;29;20487;-85
2024/01/17 13:57:53;;;;;;;17.02;15.07;;;16.90;99.90;;;;;;4862159;29;20043;-84
2024/01/17 14:00:24;;;;;;;20.85;16.55;;;16.80;99.90;;;;;;4877777;29;20478;-83
2024/01/17 14:02:58;;;;;;;24.50;17.60;;;16.70;99.90;;;;;;4862092;29;20395;-83
2024/01/17 14:05:24;;;;;;;;;;;16.70;99.90;;;;;;4880845;29;20029;-83
2024/01/17 14:07:51;;;;;;;29.65;17.20;;;16.60;99.90;;;;;;4897191;29;19908;-83
2024/01/17 14:10:20;;;;;;;30.95;17.67;;;16.50;99.90;;;;;;4881996;29;20550;-82
2024/01/17 14:12:47;;;;;;;24.17;16.92;;;16.50;99.90;;;;;;4867746;29;20035;-82
2024/01/17 14:15:19;;;;;;;17.98;14.02;;;16.40;99.90;;;;;;4864451;29;20048;-82
2024/01/17 14:17:46;;;;;;;14.60;13.10;;;16.40;99.90;;;;;;4848848;29;20440;-82
2024/01/17 14:20:34;;;;;;;22.55;12.20;;;16.30;99.90;;;;;;4879805;29;20025;-81
2024/01/17 14:23:00;;;;;;;14.05;12.35;;;16.20;99.90;;;;;;4881268;29;20056;-82
2024/01/17 14:25:26;;;;;;;16.88;11.75;;;16.20;99.90;;;;;;4878538;29;20041;-85
2024/01/17 14:27:53;;;;;;;17.65;11.88;;;16.20;99.90;;;;;;4864076;29;20033;-88
2024/01/17 14:30:20;;;;;;;18.90;10.57;;;16.10;99.90;;;;;;4862751;29;20066;-88
2024/01/17 14:32:47;;;;;;;13.20;10.75;;;16.00;99.90;;;;;;4862838;29;20036;-88
2024/01/17 14:35:13;;;;;;;18.80;10.73;;;16.00;99.90;;;;;;4890050;29;20111;-85
2024/01/17 14:37:40;;;;;;;19.77;11.05;;;16.00;99.90;;;;;;4885261;29;20056;-89
2024/01/17 14:40:08;;;;;;;19.85;11.85;;;15.90;99.90;;;;;;4869050;29;20059;-88
2024/01/17 14:42:35;;;;;;;14.93;9.90;;;15.90;99.90;;;;;;4869245;29;20036;-90
2024/01/17 14:45:03;;;;;;;18.40;11.20;;;15.80;99.90;;;;;;4900781;29;20034;-90
2024/01/17 14:47:30;;;;;;;25.60;12.10;;;15.80;99.90;;;;;;4884370;29;20062;-89
2024/01/17 14:49:57;;;;;;;13.45;10.20;;;15.80;99.90;;;;;;4868581;29;20046;-88
2024/01/17 14:52:23;;;;;;;21.88;12.32;;;15.70;99.90;;;;;;4883878;29;20060;-89
2024/01/17 14:54:50;;;;;;;15.60;10.50;;;15.70;99.90;;;;;;4883951;29;20037;-89
2024/01/17 14:57:16;;;;;;;19.00;9.77;;;15.70;99.90;;;;;;4884648;29;20478;-87
2024/01/17 14:59:43;;;;;;;13.65;9.35;;;15.60;99.90;;;;;;4862837;29;20039;-87
2024/01/17 15:02:09;;;;;;;16.63;9.85;;;15.60;99.90;;;;;;4862305;29;20120;-87
2024/01/17 15:04:36;;;;;;;12.68;9.73;;;15.50;99.90;;;;;;4846609;29;20045;-89
2024/01/17 15:07:03;;;;;;;19.85;9.15;;;15.50;99.90;;;;;;4862210;29;20029;-88
2024/01/17 15:09:29;;;;;;;13.88;8.75;;;15.50;99.90;;;;;;4857286;29;20036;-88
2024/01/17 15:11:56;;;;;;;12.18;9.43;;;15.50;99.90;;;;;;4880643;29;20399;-86
2024/01/17 15:14:22;;;;;;;16.42;9.40;;;15.40;99.90;;;;;;4880229;29;20120;-88
2024/01/17 15:16:50;;;;;;;13.30;9.40;;;15.40;99.90;;;;;;4880520;29;20454;-87
2024/01/17 15:19:17;;;;;;;18.35;10.50;;;15.40;99.90;;;;;;4880227;29;20033;-86
2024/01/17 15:21:47;;;;;;;16.52;9.77;;;15.40;99.90;;;;;;4880039;29;20037;-87
2024/01/17 15:24:13;;;;;;;18.35;9.70;;;15.30;99.90;;;;;;4876196;29;20030;-87
2024/01/17 15:26:40;;;;;;;20.70;10.60;;;15.30;99.90;;;;;;4846512;29;20033;-86
2024/01/17 15:29:07;;;;;;;17.33;8.93;;;15.20;99.90;;;;;;4861819;29;20044;-87
2024/01/17 15:31:34;;;;;;;21.85;9.93;;;15.20;99.90;;;;;;4857226;29;20360;-88
2024/01/17 15:34:04;;;;;;;22.10;9.90;;;15.20;99.90;;;;;;4871520;29;20049;-87
2024/01/17 15:36:31;;;;;;;15.85;9.15;;;15.10;99.90;;;;;;4880251;29;20423;-87
2024/01/17 15:38:58;;;;;;;21.13;8.80;;;15.10;99.90;;;;;;4879931;29;20064;-86
2024/01/17 15:41:29;;;;;;;18.13;9.23;;;15.10;99.90;;;;;;4880550;29;20033;-87
2024/01/17 15:43:56;;;;;;;18.83;9.15;;;15.10;99.90;;;;;;4861405;29;20033;-88
2024/01/17 15:46:22;;;;;;;14.77;7.88;;;15.00;99.90;;;;;;4876958;29;20037;-88
2024/01/17 15:48:49;;;;;;;14.50;8.45;;;15.00;99.90;;;;;;4876633;29;20105;-88
2024/01/17 15:51:16;;;;;;;24.15;9.23;;;15.00;99.90;;;;;;4876668;29;20470;-87
2024/01/17 15:53:45;;;;;;;20.42;9.20;;;15.00;99.90;;;;;;4876440;29;20060;-88
2024/01/17 15:56:12;;;;;;;24.58;10.60;;;14.90;99.90;;;;;;4876606;29;20038;-87
2024/01/17 15:58:41;;;;;;;21.30;7.78;;;14.90;99.90;;;;;;4876570;29;20035;-86
2024/01/17 16:01:09;;;;;;;21.58;8.10;;;14.90;99.90;;;;;;4876905;29;20079;-88
2024/01/17 16:03:36;;;;;;;28.85;9.48;;;14.90;99.90;;;;;;4861181;29;20025;-88
2024/01/17 16:06:04;;;;;;;23.45;9.30;;;14.90;99.90;;;;;;4876206;29;20041;-88
2024/01/17 16:08:31;;;;;;;14.77;8.05;;;14.90;99.90;;;;;;4876537;29;20030;-88
2024/01/17 16:10:58;;;;;;;18.92;8.50;;;14.80;99.90;;;;;;4876259;29;20037;-88
2024/01/17 16:13:24;;;;;;;16.90;8.98;;;14.80;99.90;;;;;;4876350;29;20055;-87
2024/01/17 16:15:52;;;;;;;26.10;9.20;;;14.80;99.90;;;;;;4876359;29;20533;-87
2024/01/17 16:18:19;;;;;;;23.30;8.65;;;14.80;99.90;;;;;;4876534;29;20033;-87
2024/01/17 16:20:46;;;;;;;19.35;7.82;;;14.80;99.90;;;;;;4876094;29;20030;-87
2024/01/17 16:23:13;;;;;;;19.13;7.93;;;14.80;99.90;;;;;;4860551;29;20108;-88
2024/01/17 16:25:40;;;;;;;28.42;9.80;;;14.80;99.90;;;;;;4894392;29;20033;-89
2024/01/17 16:28:06;;;;;;;21.60;8.20;;;14.80;99.90;;;;;;4878963;29;20029;-88
2024/01/17 16:30:32;;;;;;;20.98;9.05;;;14.80;99.90;;;;;;4879063;29;20025;-88
2024/01/17 16:32:59;;;;;;;20.45;8.80;;;14.80;99.90;;;;;;4893809;29;20116;-88
2024/01/17 16:35:30;;;;;;;20.58;8.98;;;14.80;99.90;;;;;;4875780;29;20074;-88
2024/01/17 16:38:09;;;;;;;17.67;7.50;;;14.80;99.90;;;;;;4882818;29;20652;-88
2024/01/17 16:40:41;;;;;;;21.25;7.97;;;14.80;99.90;;;;;;4882502;29;20119;-89
